Time;durP1;ratioP1;P1;durP2;ratioP2;P2;SDS_P1;SDS_P2;PMS_P1;PMS_P2;Temp;Humidity;BMP_temperature;BMP_pressure;BME280_temperature;BME280_humidity;BME280_pressure;Samples;Min_cycle;Max_cycle;Signal;HPM_P1;HPM_P2
2020/12/23 14:47:55;;;;;;;2.08;0.70;;;;;;;19.36;52.13;100559.16;5024035;28;96474;-59
2020/12/23 14:50:20;;;;;;;1.70;0.82;;;;;;;19.78;52.02;100560.63;5011282;28;96707;-52
2020/12/23 16:54:32;;;;;;;1.65;1.10;;;;;;;18.68;53.14;100477.31;5002145;28;96547;-56
2020/12/23 16:56:59;;;;;;;2.72;1.40;;;;;;;19.09;53.78;100473.56;4991511;28;96777;-56
2020/12/23 16:59:26;;;;;;;2.38;1.10;;;;;;;19.67;53.09;100470.94;4992066;28;97316;-56
2020/12/23 17:01:54;;;;;;;3.70;1.20;;;;;;;20.23;52.45;100470.06;4957403;28;97197;-56
2020/12/23 17:04:21;;;;;;;1.20;0.85;;;;;;;20.72;51.37;100472.84;4978540;28;97150;-56
2020/12/23 17:06:46;;;;;;;1.88;1.10;;;;;;;21.15;50.76;100465.09;4973719;28;96623;-56
2020/12/23 17:09:11;;;;;;;1.63;1.02;;;;;;;21.49;50.44;100464.72;4973756;28;127380;-56
2020/12/23 17:11:37;;;;;;;1.38;0.82;;;;;;;21.78;49.62;100466.25;4971764;28;126553;-56
2020/12/23 17:14:02;;;;;;;2.13;1.10;;;;;;;22.03;49.23;100462.56;4971078;28;96929;-56
2020/12/23 17:16:28;;;;;;;1.10;0.70;;;;;;;22.26;49.06;100466.91;4959393;28;96865;-56
2020/12/23 17:18:53;;;;;;;2.00;0.88;;;;;;;22.46;48.31;100465.25;4970736;28;126787;-56
2020/12/23 17:21:28;;;;;;;1.48;0.90;;;;;;;22.61;48.34;100467.25;4972719;28;97233;-55
2020/12/23 17:23:55;;;;;;;1.17;0.77;;;;;;;22.77;47.68;100464.78;4973359;28;96822;-56
2020/12/23 17:26:21;;;;;;;1.33;0.90;;;;;;;22.89;47.47;100476.66;4973061;28;109888;-56
2020/12/23 17:28:47;;;;;;;1.63;0.60;;;;;;;23.00;47.19;100477.03;4965919;28;97491;-55
2020/12/23 17:31:12;;;;;;;0.88;0.60;;;;;;;23.10;47.30;100477.50;4958597;28;97297;-55
2020/12/23 17:33:38;;;;;;;1.33;0.75;;;;;;;23.17;46.89;100482.50;4978973;28;96888;-55
2020/12/23 17:36:03;;;;;;;0.88;0.60;;;;;;;23.25;46.89;100473.31;4955795;28;101225;-55
2020/12/23 17:38:29;;;;;;;1.13;0.70;;;;;;;23.30;46.77;100480.13;4966486;28;97451;-55
2020/12/23 17:40:54;;;;;;;0.95;0.60;;;;;;;23.36;46.61;100486.97;4960351;28;103909;-55
2020/12/23 17:43:19;;;;;;;1.00;0.68;;;;;;;23.40;46.52;100483.22;4980475;28;110117;-55
2020/12/23 17:45:45;;;;;;;0.60;0.50;;;;;;;23.45;46.65;100485.69;4964920;28;96675;-55
2020/12/23 17:48:10;;;;;;;1.00;0.73;;;;;;;23.48;46.14;100473.09;4976796;28;112272;-55
2020/12/23 17:50:36;;;;;;;1.13;0.50;;;;;;;23.50;45.94;100470.34;4957553;28;126428;-55
2020/12/23 17:53:01;;;;;;;1.33;1.17;;;;;;;23.53;46.13;100473.75;4959247;28;97073;-55
2020/12/23 17:55:27;;;;;;;0.73;0.50;;;;;;;23.55;45.80;100477.19;4965749;28;103862;-54
2020/12/23 17:57:52;;;;;;;1.10;0.80;;;;;;;23.57;45.78;100466.47;4954542;28;126905;-55
2020/12/23 18:00:18;;;;;;;1.17;0.80;;;;;;;23.60;46.13;100465.44;4974685;28;99337;-55
2020/12/23 18:02:43;;;;;;;1.10;0.60;;;;;;;23.63;45.62;100473.28;4971408;28;105806;-54
2020/12/23 18:05:09;;;;;;;0.90;0.80;;;;;;;23.64;46.10;100465.25;4945949;28;97925;-54
2020/12/23 18:07:35;;;;;;;1.10;0.80;;;;;;;23.66;45.90;100468.69;4944640;28;97938;-54
2020/12/23 18:10:00;;;;;;;1.10;0.70;;;;;;;23.68;45.67;100460.63;4942310;28;101041;-54
2020/12/23 18:12:26;;;;;;;1.38;0.70;;;;;;;23.69;45.77;100467.66;4962170;28;110055;-54
2020/12/23 18:14:51;;;;;;;1.30;0.90;;;;;;;23.70;45.51;100461.41;4945385;28;110141;-54
2020/12/23 18:17:17;;;;;;;1.17;0.77;;;;;;;23.70;45.82;100461.41;4941380;28;100217;-54
2020/12/23 18:19:42;;;;;;;1.67;1.58;;;;;;;23.70;45.52;100456.94;4975125;28;126858;-54
2020/12/23 18:22:12;;;;;;;1.20;0.93;;;;;;;23.70;45.70;100453.44;4944611;28;97619;-54
2020/12/23 18:24:38;;;;;;;1.15;0.90;;;;;;;23.71;45.74;100464.00;4944286;28;96897;-54
2020/12/23 18:27:04;;;;;;;1.10;0.80;;;;;;;23.72;45.62;100457.72;4945228;28;127339;-58
2020/12/23 18:29:29;;;;;;;1.90;0.60;;;;;;;23.72;45.28;100451.53;4941369;28;102343;-58
2020/12/23 18:31:54;;;;;;;0.80;0.70;;;;;;;23.73;45.69;100453.28;4941937;28;96890;-58
2020/12/23 18:34:20;;;;;;;0.70;0.60;;;;;;;23.74;45.41;100455.00;4940268;28;108699;-58
2020/12/23 18:36:45;;;;;;;0.70;0.60;;;;;;;23.74;45.83;100455.88;4941938;28;127261;-58
2020/12/23 18:39:11;;;;;;;0.70;0.60;;;;;;;23.75;45.52;100457.59;4948282;28;97925;-58
2020/12/23 18:41:36;;;;;;;2.03;1.92;;;;;;;23.75;45.52;100462.91;4944601;28;110385;-58
2020/12/23 18:44:03;;;;;;;1.20;0.70;;;;;;;23.76;45.60;100456.66;4959141;28;100821;-58
2020/12/23 18:46:29;;;;;;;0.70;0.60;;;;;;;23.77;45.41;100462.84;4949747;28;98323;-58
2020/12/23 18:48:54;;;;;;;0.82;0.65;;;;;;;23.77;45.52;100461.03;4943876;28;126472;-59
2020/12/23 18:51:21;;;;;;;0.90;0.60;;;;;;;23.77;45.57;100460.19;4952100;28;108786;-58
2020/12/23 18:53:47;;;;;;;0.60;0.40;;;;;;;23.78;45.90;100459.25;4958563;28;97327;-58
2020/12/23 18:56:14;;;;;;;1.20;0.70;;;;;;;23.79;45.98;100462.78;4958160;28;97503;-58
2020/12/23 18:58:40;;;;;;;1.00;0.60;;;;;;;23.80;45.79;100473.38;4954415;28;97304;-58
2020/12/23 19:01:08;;;;;;;1.23;0.70;;;;;;;23.79;45.79;100463.63;4961817;28;97176;-58
2020/12/23 19:03:33;;;;;;;1.00;0.70;;;;;;;23.80;46.00;100468.06;4958298;28;96841;-58
2020/12/23 19:05:58;;;;;;;0.75;0.50;;;;;;;23.81;45.91;100475.09;4946950;28;105728;-58
2020/12/23 19:08:24;;;;;;;0.90;0.60;;;;;;;23.80;45.68;100468.06;4941918;28;97509;-58
2020/12/23 19:10:49;;;;;;;0.80;0.60;;;;;;;23.82;46.09;100465.31;4944747;28;110335;-58
2020/12/23 19:13:15;;;;;;;1.38;0.80;;;;;;;23.81;45.53;100463.59;4949886;28;97263;-59
2020/12/23 19:15:40;;;;;;;0.90;0.70;;;;;;;23.81;45.83;100467.09;4953824;28;97460;-58
2020/12/23 19:18:06;;;;;;;2.00;1.90;;;;;;;23.82;46.09;100470.66;4946393;28;109359;-58
2020/12/23 19:20:33;;;;;;;0.80;0.60;;;;;;;23.82;45.96;100468.84;4951639;28;110206;-58
2020/12/23 19:22:58;;;;;;;0.93;0.88;;;;;;;23.82;46.08;100473.31;4967315;28;97494;-58
2020/12/23 19:25:26;;;;;;;0.80;0.60;;;;;;;23.82;46.13;100475.97;4956918;28;126446;-58
2020/12/23 19:27:54;;;;;;;0.80;0.60;;;;;;;23.81;46.14;100461.78;4958161;28;97460;-58
2020/12/23 19:30:19;;;;;;;0.82;0.80;;;;;;;23.82;45.89;100462.66;4960326;27;97034;-58
2020/12/23 19:32:48;;;;;;;1.50;1.40;;;;;;;23.81;45.95;100463.59;4957872;28;109904;-58
2020/12/23 19:35:14;;;;;;;0.73;0.50;;;;;;;23.81;45.82;100459.13;4947028;28;97707;-58
2020/12/23 19:37:40;;;;;;;0.90;0.70;;;;;;;23.82;45.85;100468.00;4955622;28;97178;-58
2020/12/23 19:40:05;;;;;;;1.30;0.65;;;;;;;23.82;46.22;100460.00;4957450;28;110083;-58
2020/12/23 19:42:31;;;;;;;0.95;0.60;;;;;;;23.81;45.98;100456.44;4957429;28;110061;-58
2020/12/23 19:44:56;;;;;;;0.90;0.60;;;;;;;23.82;46.37;100454.69;4959630;28;98376;-58
2020/12/23 19:47:22;;;;;;;0.75;0.60;;;;;;;23.82;46.03;100444.88;4938158;28;118896;-58
2020/12/23 19:49:47;;;;;;;0.77;0.60;;;;;;;23.82;46.26;100442.22;4939022;28;96793;-58
2020/12/23 19:52:13;;;;;;;1.00;0.70;;;;;;;23.83;46.68;100448.38;4976902;28;96852;-58
2020/12/23 19:54:38;;;;;;;1.45;0.60;;;;;;;23.84;45.97;100455.47;4946646;28;126601;-58
2020/12/23 19:57:06;;;;;;;1.40;0.75;;;;;;;23.82;45.98;100444.03;4953345;28;127058;-58
2020/12/23 19:59:32;;;;;;;1.17;0.82;;;;;;;23.83;46.13;100448.38;4947584;28;96801;-58
2020/12/23 20:01:57;;;;;;;1.52;0.60;;;;;;;23.83;46.32;100451.94;4943412;28;108418;-58
2020/12/23 20:04:23;;;;;;;1.00;0.65;;;;;;;23.82;46.12;100447.53;4945386;28;127470;-59
2020/12/23 20:06:48;;;;;;;0.98;0.73;;;;;;;23.84;46.15;100439.47;4952891;28;98327;-58
2020/12/23 20:09:13;;;;;;;1.10;0.63;;;;;;;23.83;46.29;100440.41;4956858;28;110286;-58
2020/12/23 20:11:39;;;;;;;1.30;0.65;;;;;;;23.83;46.36;100443.06;4957633;28;96794;-58
2020/12/23 20:14:04;;;;;;;1.20;0.75;;;;;;;23.83;46.33;100446.63;4956457;28;97701;-59
2020/12/23 20:16:30;;;;;;;0.95;0.70;;;;;;;23.83;46.25;100448.38;4947886;28;126592;-58
2020/12/23 20:18:55;;;;;;;0.75;0.60;;;;;;;23.83;46.32;100453.72;4953770;28;96821;-58
2020/12/23 20:21:21;;;;;;;1.00;0.70;;;;;;;23.83;46.12;100456.38;4957349;28;97316;-58
2020/12/23 20:23:46;;;;;;;0.73;0.52;;;;;;;23.82;46.41;100458.19;4976811;22;97556;-54
2020/12/23 20:26:12;;;;;;;0.82;0.65;;;;;;;23.82;46.33;100454.69;4973888;28;119918;-54
2020/12/23 20:28:37;;;;;;;1.15;0.77;;;;;;;23.82;46.23;100449.34;4975690;28;96840;-54
2020/12/23 20:31:03;;;;;;;1.35;0.77;;;;;;;23.82;46.17;100454.69;4971900;28;100058;-54
2020/12/23 20:33:29;;;;;;;0.95;0.60;;;;;;;23.81;46.40;100464.44;4963676;28;114878;-54
2020/12/23 20:35:54;;;;;;;1.08;0.65;;;;;;;23.82;46.35;100466.19;4956000;28;97556;-54
2020/12/23 20:38:20;;;;;;;0.77;0.60;;;;;;;23.80;46.30;100473.38;4951552;28;97027;-54
2020/12/23 20:40:47;;;;;;;0.90;0.65;;;;;;;23.80;46.49;100484.03;4963862;28;96821;-54
2020/12/23 20:43:12;;;;;;;1.10;0.93;;;;;;;23.80;46.36;100491.09;4966497;28;97624;-54
2020/12/23 20:45:38;;;;;;;0.77;0.68;;;;;;;23.79;46.34;100498.25;4955079;28;126624;-54
2020/12/23 20:48:05;;;;;;;1.38;0.70;;;;;;;23.79;46.03;100505.38;4965780;28;96714;-54
2020/12/23 20:50:30;;;;;;;1.42;0.80;;;;;;;23.79;46.15;100500.91;4958379;28;97348;-54
2020/12/23 20:52:56;;;;;;;0.77;0.70;;;;;;;23.78;46.46;100504.53;4956398;28;97583;-54
2020/12/23 20:55:21;;;;;;;1.45;0.73;;;;;;;23.78;46.49;100509.84;4931137;28;97593;-54
2020/12/23 20:57:47;;;;;;;0.93;0.70;;;;;;;23.77;46.36;100508.97;4965609;28;113119;-54
2020/12/23 21:00:15;;;;;;;1.67;0.77;;;;;;;23.77;46.11;100516.97;4980148;28;96920;-54
2020/12/23 21:02:40;;;;;;;1.00;0.60;;;;;;;23.76;46.54;100517.03;4962819;28;97508;-54
2020/12/23 21:05:06;;;;;;;0.80;0.60;;;;;;;23.76;46.42;100517.91;4965248;28;97318;-54
2020/12/23 21:07:32;;;;;;;1.20;0.70;;;;;;;23.76;46.07;100525.91;4967429;28;97334;-54
2020/12/23 21:09:58;;;;;;;1.05;0.60;;;;;;;23.76;46.05;100517.91;4960505;28;96816;-54
2020/12/23 21:12:23;;;;;;;1.67;0.68;;;;;;;23.76;46.07;100519.69;4961626;28;97651;-54
2020/12/23 21:14:49;;;;;;;0.93;0.70;;;;;;;23.75;45.95;100517.97;4967540;28;105289;-53
2020/12/23 21:17:15;;;;;;;0.75;0.50;;;;;;;23.75;46.04;100521.50;4959207;28;96787;-54
2020/12/23 21:19:40;;;;;;;1.02;0.60;;;;;;;23.76;46.18;100519.69;4961379;28;96935;-54
2020/12/23 21:22:05;;;;;;;1.70;0.93;;;;;;;23.74;46.20;100522.44;4943072;28;99647;-53
2020/12/23 21:24:31;;;;;;;0.90;0.80;;;;;;;23.76;45.87;100519.69;4962218;28;126531;-54
2020/12/23 21:26:56;;;;;;;1.40;1.30;;;;;;;23.75;46.24;100516.16;4960062;28;111986;-54
2020/12/23 21:29:22;;;;;;;1.08;0.90;;;;;;;23.75;46.07;100517.97;4973649;28;105130;-53
2020/12/23 21:31:47;;;;;;;1.33;0.73;;;;;;;23.75;46.02;100523.31;4961080;28;97774;-54
2020/12/23 21:34:13;;;;;;;0.82;0.50;;;;;;;23.75;45.93;100521.50;4970926;28;97260;-54
2020/12/23 21:36:38;;;;;;;1.98;0.68;;;;;;;23.75;46.26;100524.16;4961851;28;102090;-54
2020/12/23 21:39:04;;;;;;;1.63;0.90;;;;;;;23.75;46.07;100520.63;4956159;28;97061;-53
2020/12/23 21:41:33;;;;;;;1.40;0.65;;;;;;;23.75;46.12;100524.16;4955694;28;99497;-54
2020/12/23 21:43:59;;;;;;;1.30;0.63;;;;;;;23.74;45.82;100517.13;4961188;28;98265;-53
2020/12/23 21:46:25;;;;;;;1.05;0.60;;;;;;;23.75;46.12;100526.81;4959876;28;112040;-53
2020/12/23 21:48:54;;;;;;;0.90;0.50;;;;;;;23.73;45.73;100523.38;4964449;28;111692;-53
2020/12/23 21:51:31;;;;;;;1.50;0.77;;;;;;;23.72;45.84;100529.63;4942247;28;97397;-53
2020/12/23 21:53:56;;;;;;;0.93;0.60;;;;;;;23.74;45.76;100525.13;4964351;28;97497;-54
2020/12/23 21:56:22;;;;;;;0.73;0.50;;;;;;;23.74;46.04;100530.44;4971776;28;97222;-53
2020/12/23 21:58:48;;;;;;;0.90;0.60;;;;;;;23.72;45.83;100526.97;4962948;28;112650;-53
2020/12/23 22:01:34;;;;;;;1.08;0.57;;;;;;;23.70;45.81;100534.16;4972381;28;97470;-54
2020/12/23 22:04:00;;;;;;;1.00;0.60;;;;;;;23.73;46.07;100530.50;4960250;28;98087;-53
2020/12/23 22:06:26;;;;;;;0.80;0.52;;;;;;;23.72;45.84;100529.63;4955555;28;97410;-54
2020/12/23 22:08:51;;;;;;;1.35;0.60;;;;;;;23.72;45.74;100528.78;4962725;28;110561;-53
2020/12/23 22:11:23;;;;;;;1.30;0.70;;;;;;;23.71;45.71;100533.25;4963398;28;127235;-53
2020/12/23 22:13:49;;;;;;;1.27;0.55;;;;;;;23.71;45.77;100533.25;4960096;28;97240;-54
2020/12/23 22:16:15;;;;;;;1.13;0.70;;;;;;;23.71;45.69;100538.56;4969144;28;96747;-54
2020/12/23 22:18:41;;;;;;;1.02;0.65;;;;;;;23.71;45.78;100535.03;4974161;28;111435;-53
2020/12/23 22:21:06;;;;;;;1.77;0.63;;;;;;;23.70;46.03;100538.63;4962645;28;97547;-53
2020/12/23 22:23:32;;;;;;;0.85;0.50;;;;;;;23.71;45.96;100541.22;4966389;28;97167;-54
2020/12/23 22:25:57;;;;;;;1.00;0.60;;;;;;;23.70;45.96;100534.16;4959178;28;97756;-53
2020/12/23 22:28:22;;;;;;;1.42;0.68;;;;;;;23.71;45.73;100535.91;4963443;28;97170;-53
2020/12/23 22:30:48;;;;;;;1.58;0.70;;;;;;;23.70;45.59;100533.31;4955096;28;126901;-54
2020/12/23 22:33:13;;;;;;;1.85;0.80;;;;;;;23.70;45.70;100535.97;4963080;28;127146;-54
2020/12/23 22:35:39;;;;;;;1.05;0.70;;;;;;;23.70;45.88;100530.66;4971217;28;112006;-53
2020/12/23 22:38:04;;;;;;;1.25;0.70;;;;;;;23.69;45.82;100534.22;4967523;28;111815;-53
2020/12/23 22:40:30;;;;;;;1.05;0.70;;;;;;;23.69;45.69;100543.09;4982287;28;112769;-53
2020/12/23 22:42:55;;;;;;;1.38;0.85;;;;;;;23.69;45.84;100543.09;4969262;28;116677;-53
2020/12/23 22:45:21;;;;;;;1.00;0.60;;;;;;;23.68;45.76;100538.69;4967794;28;112921;-53
2020/12/23 22:47:46;;;;;;;1.00;0.57;;;;;;;23.68;45.51;100538.69;4969364;28;97064;-53
2020/12/23 22:50:11;;;;;;;0.77;0.60;;;;;;;23.69;45.55;100539.56;4960605;28;97447;-53
2020/12/23 22:52:37;;;;;;;0.80;0.55;;;;;;;23.70;45.52;100538.63;4965798;28;126553;-53
2020/12/23 22:55:05;;;;;;;1.20;0.60;;;;;;;23.69;45.55;100535.13;4953814;28;96822;-53
2020/12/23 22:57:31;;;;;;;0.70;0.50;;;;;;;23.69;45.77;100532.44;4962240;28;98285;-53
2020/12/23 22:59:56;;;;;;;0.80;0.40;;;;;;;23.69;45.64;100535.13;4951356;28;103085;-53
2020/12/23 23:02:21;;;;;;;1.42;0.70;;;;;;;23.70;45.59;100527.97;4970518;28;126400;-53
2020/12/23 23:04:47;;;;;;;1.52;0.60;;;;;;;23.71;45.52;100537.72;4966163;28;105283;-53
2020/12/23 23:07:12;;;;;;;1.40;0.63;;;;;;;23.69;45.87;100540.44;4966080;28;96999;-53
2020/12/23 23:09:38;;;;;;;1.83;0.70;;;;;;;23.71;45.51;100541.22;4965025;28;101294;-53
2020/12/23 23:12:03;;;;;;;1.15;0.60;;;;;;;23.70;45.52;100543.97;4970312;28;126453;-53
2020/12/23 23:14:28;;;;;;;1.00;0.50;;;;;;;23.70;45.32;100543.97;4968374;28;98173;-53
2020/12/23 23:16:54;;;;;;;1.13;0.52;;;;;;;23.69;45.49;100540.44;4969292;28;111737;-53
2020/12/23 23:19:19;;;;;;;0.93;0.60;;;;;;;23.69;45.64;100547.53;4969784;28;126780;-53
2020/12/23 23:21:45;;;;;;;1.30;0.60;;;;;;;23.68;45.49;100544.03;4969185;28;97182;-53
2020/12/23 23:24:10;;;;;;;1.00;0.40;;;;;;;23.70;45.24;100546.63;4971192;28;111571;-53
2020/12/23 23:26:36;;;;;;;0.88;0.47;;;;;;;23.68;45.27;100541.38;4968659;28;110677;-53
2020/12/23 23:29:01;;;;;;;0.82;0.50;;;;;;;23.69;45.49;100536.88;4972587;28;125767;-52
2020/12/23 23:31:26;;;;;;;2.20;0.70;;;;;;;23.69;45.31;100532.44;4971817;28;102930;-53
2020/12/23 23:33:54;;;;;;;0.80;0.50;;;;;;;23.68;45.38;100530.72;4956874;28;112800;-53
2020/12/23 23:36:19;;;;;;;0.88;0.45;;;;;;;23.68;45.18;100530.72;4970276;28;98146;-53
2020/12/23 23:38:45;;;;;;;1.92;0.68;;;;;;;23.69;45.43;100528.91;4968154;28;126761;-53
2020/12/23 23:41:10;;;;;;;1.17;0.50;;;;;;;23.67;45.18;100539.66;4965316;28;97135;-53
2020/12/23 23:43:36;;;;;;;0.85;0.68;;;;;;;23.67;45.08;100539.66;4968786;28;96827;-53
2020/12/23 23:46:01;;;;;;;1.55;0.70;;;;;;;23.66;45.31;100537.91;4970992;28;96865;-53
2020/12/23 23:48:26;;;;;;;1.98;0.63;;;;;;;23.66;45.08;100535.25;4969611;28;126858;-53
2020/12/23 23:50:52;;;;;;;1.85;0.60;;;;;;;23.66;45.14;100529.94;4985381;28;100575;-53
2020/12/23 23:53:17;;;;;;;1.15;0.50;;;;;;;23.66;45.26;100529.94;4974204;28;96771;-53
2020/12/23 23:55:43;;;;;;;1.40;0.65;;;;;;;23.66;45.05;100529.94;4970316;28;96783;-53
2020/12/23 23:58:08;;;;;;;1.08;0.50;;;;;;;23.66;45.18;100531.72;4971303;28;127270;-53
